createdAt,value
2023-04-09T00:02:25.524Z,101417.16
2023-04-09T00:04:52.814Z,101417.44
2023-04-09T00:07:19.758Z,101423.69
2023-04-09T00:09:46.736Z,101419.56
2023-04-09T00:12:13.778Z,101425.09
2023-04-09T00:14:40.747Z,101418.00
2023-04-09T00:17:07.972Z,101413.00
2023-04-09T00:19:34.867Z,101417.00
2023-04-09T00:22:02.313Z,101411.72
2023-04-09T00:24:29.221Z,101409.59
2023-04-09T00:26:56.458Z,101417.56
2023-04-09T00:29:23.759Z,101410.44
2023-04-09T00:31:50.664Z,101410.59
2023-04-09T00:34:17.542Z,101401.34
2023-04-09T00:36:44.459Z,101395.25
2023-04-09T00:39:11.368Z,101392.91
2023-04-09T00:41:38.462Z,101395.50
2023-04-09T00:44:05.381Z,101395.78
2023-04-09T00:46:33.005Z,101394.91
2023-04-09T00:49:00.278Z,101387.50
2023-04-09T00:51:27.243Z,101393.47
2023-04-09T00:53:55.955Z,101382.41
2023-04-09T00:56:24.761Z,101383.25
2023-04-09T00:58:52.358Z,101367.75
2023-04-09T01:01:19.541Z,101373.06
2023-04-09T01:03:46.792Z,101373.06
2023-04-09T01:06:54.262Z,101370.44
2023-04-09T01:09:37.552Z,101362.25
2023-04-09T01:12:55.715Z,101359.41
2023-04-09T01:15:30.650Z,101362.13
2023-04-09T01:18:08.156Z,101360.25
2023-04-09T01:20:54.942Z,101356.94
2023-04-09T01:23:55.073Z,101357.69
2023-04-09T01:27:00.023Z,101359.41
2023-04-09T01:29:33.309Z,101358.22
2023-04-09T01:32:02.925Z,101355.38
2023-04-09T01:34:31.089Z,101353.41
2023-04-09T01:37:01.381Z,101356.81
2023-04-09T01:39:29.544Z,101357.38
2023-04-09T01:41:58.334Z,101353.97
2023-04-09T01:44:26.790Z,101363.31
2023-04-09T01:46:55.555Z,101359.31
2023-04-09T01:49:23.072Z,101356.78
2023-04-09T01:51:51.050Z,101361.03
2023-04-09T01:54:17.944Z,101365.00
2023-04-09T01:56:47.021Z,101360.44
2023-04-09T01:59:14.736Z,101362.25
2023-04-09T02:01:59.384Z,101355.56
2023-04-09T02:04:36.540Z,101360.69
2023-04-09T02:07:37.892Z,101357.81
2023-04-09T02:10:07.503Z,101358.09
2023-04-09T02:12:38.120Z,101358.63
2023-04-09T02:15:07.641Z,101352.66
2023-04-09T02:17:34.766Z,101354.91
2023-04-09T02:20:01.675Z,101353.47
2023-04-09T02:22:28.879Z,101351.31
2023-04-09T02:24:56.007Z,101347.91
2023-04-09T02:27:23.256Z,101347.69
2023-04-09T02:29:51.031Z,101352.13
2023-04-09T02:32:17.975Z,101357.06
2023-04-09T02:34:46.118Z,101346.53
2023-04-09T02:37:12.999Z,101361.25
2023-04-09T02:39:39.874Z,101355.41
2023-04-09T02:42:08.140Z,101351.16
2023-04-09T02:44:35.675Z,101354.38
2023-04-09T02:47:02.542Z,101343.00
2023-04-09T02:49:29.491Z,101350.38
2023-04-09T02:51:56.823Z,101341.81
2023-04-09T02:54:23.742Z,101351.88
2023-04-09T02:56:50.670Z,101343.09
2023-04-09T02:59:18.334Z,101335.25
2023-04-09T03:01:45.235Z,101346.03
2023-04-09T03:04:12.237Z,101339.78
2023-04-09T03:06:39.231Z,101336.38
2023-04-09T03:09:06.111Z,101332.13
2023-04-09T03:11:33.190Z,101331.97
2023-04-09T03:14:00.162Z,101322.19
2023-04-09T03:16:27.370Z,101325.00
2023-04-09T03:18:54.520Z,101326.84
2023-04-09T03:21:21.585Z,101326.97
2023-04-09T03:23:48.850Z,101314.75
2023-04-09T03:26:15.728Z,101332.06
2023-04-09T03:28:42.627Z,101324.22
2023-04-09T03:31:09.486Z,101331.59
2023-04-09T03:33:36.487Z,101325.72
2023-04-09T03:36:03.816Z,101328.53
2023-04-09T03:38:30.999Z,101325.41
2023-04-09T03:40:57.901Z,101321.00
2023-04-09T03:43:25.196Z,101313.56
2023-04-09T03:45:52.585Z,101316.38
2023-04-09T03:48:19.631Z,101314.94
2023-04-09T03:50:46.640Z,101316.19
2023-04-09T03:53:13.492Z,101310.94
2023-04-09T03:55:40.927Z,101311.31
2023-04-09T03:58:07.927Z,101319.53
2023-04-09T04:00:34.829Z,101307.31
2023-04-09T04:03:02.067Z,101295.94
2023-04-09T04:05:29.121Z,101289.06
2023-04-09T04:07:56.204Z,101289.72
2023-04-09T04:10:23.062Z,101290.00
2023-04-09T04:12:50.012Z,101280.47
2023-04-09T04:15:17.312Z,101280.13
2023-04-09T04:17:44.183Z,101279.59
2023-04-09T04:20:11.803Z,101275.34
2023-04-09T04:22:38.662Z,101274.75
2023-04-09T04:25:06.088Z,101266.78
2023-04-09T04:27:33.313Z,101274.13
2023-04-09T04:30:02.276Z,101272.56
2023-04-09T04:32:29.678Z,101271.84
2023-04-09T04:34:56.664Z,101269.38
2023-04-09T04:37:23.526Z,101269.50
2023-04-09T04:39:50.540Z,101271.59
2023-04-09T04:42:17.892Z,101266.22
2023-04-09T04:44:45.908Z,101266.47
2023-04-09T04:47:12.812Z,101263.06
2023-04-09T04:49:39.741Z,101258.78
2023-04-09T04:52:07.831Z,101249.13
2023-04-09T04:54:34.753Z,101251.81
2023-04-09T04:57:02.235Z,101253.78
2023-04-09T04:59:29.750Z,101258.69
2023-04-09T05:01:56.832Z,101255.25
2023-04-09T05:04:24.055Z,101254.03
2023-04-09T05:06:50.996Z,101253.06
2023-04-09T05:09:19.134Z,101251.47
2023-04-09T05:11:47.461Z,101255.16
2023-04-09T05:14:14.371Z,101255.28
2023-04-09T05:16:41.760Z,101249.28
2023-04-09T05:19:08.996Z,101242.06
2023-04-09T05:21:35.837Z,101237.81
2023-04-09T05:24:02.767Z,101241.22
2023-04-09T05:26:30.108Z,101244.91
2023-04-09T05:28:57.141Z,101241.22
2023-04-09T05:31:24.350Z,101240.38
2023-04-09T05:33:51.517Z,101233.28
2023-04-09T05:36:19.682Z,101232.44
2023-04-09T05:38:48.438Z,101225.22
2023-04-09T05:41:16.383Z,101220.84
2023-04-09T05:43:43.525Z,101212.16
2023-04-09T05:46:10.505Z,101204.34
2023-04-09T05:48:37.608Z,101206.66
2023-04-09T05:51:04.984Z,101205.31
2023-04-09T05:53:32.433Z,101203.09
2023-04-09T05:55:59.520Z,101200.06
2023-04-09T05:58:28.289Z,101196.53
2023-04-09T06:00:55.527Z,101203.47
2023-04-09T06:03:22.528Z,101204.91
2023-04-09T06:05:49.628Z,101210.06
2023-04-09T06:08:16.936Z,101204.81
2023-04-09T06:10:43.840Z,101197.09
2023-04-09T06:13:10.850Z,101195.22
2023-04-09T06:15:40.810Z,101194.91
2023-04-09T06:18:07.921Z,101197.91
2023-04-09T06:20:34.967Z,101199.22
2023-04-09T06:23:01.847Z,101212.91
2023-04-09T06:25:31.651Z,101224.63
2023-04-09T06:27:58.566Z,101218.88
2023-04-09T06:30:26.131Z,101212.63
2023-04-09T06:32:54.986Z,101211.88
2023-04-09T06:35:22.586Z,101210.13
2023-04-09T06:37:49.495Z,101226.75
2023-04-09T06:40:16.936Z,101220.84
2023-04-09T06:42:43.773Z,101228.94
2023-04-09T06:45:10.869Z,101227.13
2023-04-09T06:47:37.791Z,101217.31
2023-04-09T06:50:05.590Z,101218.47
2023-04-09T06:52:32.658Z,101219.63
2023-04-09T06:54:59.583Z,101212.50
2023-04-09T06:57:26.556Z,101213.25
2023-04-09T06:59:53.612Z,101212.97
2023-04-09T07:02:20.809Z,101218.63
2023-04-09T07:04:48.225Z,101212.38
2023-04-09T07:07:15.148Z,101211.38
2023-04-09T07:09:43.267Z,101201.28
2023-04-09T07:12:10.216Z,101203.72
2023-04-09T07:14:37.075Z,101208.25
2023-04-09T07:17:04.291Z,101203.97
2023-04-09T07:19:31.368Z,101206.25
2023-04-09T07:21:58.241Z,101209.22
2023-04-09T07:24:25.702Z,101208.06
2023-04-09T07:26:52.716Z,101203.38
2023-04-09T07:29:21.328Z,101197.84
2023-04-09T07:31:48.302Z,101197.59
2023-04-09T07:34:15.202Z,101191.19
2023-04-09T07:36:43.010Z,101198.59
2023-04-09T07:39:10.170Z,101197.31
2023-04-09T07:41:37.771Z,101196.75
2023-04-09T07:44:06.543Z,101203.03
2023-04-09T07:46:33.786Z,101199.16
2023-04-09T07:49:00.956Z,101205.41
2023-04-09T07:51:28.255Z,101210.97
2023-04-09T07:53:55.203Z,101206.09
2023-04-09T07:56:22.553Z,101205.84
2023-04-09T07:58:51.065Z,101216.75
2023-04-09T08:01:18.241Z,101212.34
2023-04-09T08:03:45.763Z,101218.34
2023-04-09T08:06:12.913Z,101212.31
2023-04-09T08:08:40.236Z,101207.97
2023-04-09T08:11:07.357Z,101207.13
2023-04-09T08:13:34.414Z,101200.69
2023-04-09T08:16:02.575Z,101200.66
2023-04-09T08:18:29.844Z,101201.34
2023-04-09T08:20:57.697Z,101197.00
2023-04-09T08:23:24.852Z,101197.47
2023-04-09T08:25:51.711Z,101201.16
2023-04-09T08:28:18.651Z,101202.97
2023-04-09T08:30:45.580Z,101191.00
2023-04-09T08:33:12.557Z,101194.66
2023-04-09T08:35:41.318Z,101197.25
2023-04-09T08:38:08.394Z,101182.88
2023-04-09T08:40:36.944Z,101178.34
2023-04-09T08:43:09.144Z,101183.63
2023-04-09T08:45:36.816Z,101182.78
2023-04-09T08:48:04.344Z,101172.25
2023-04-09T08:50:34.463Z,101166.81
2023-04-09T08:53:04.165Z,101167.88
2023-04-09T08:55:31.659Z,101168.22
2023-04-09T08:57:58.805Z,101164.63
2023-04-09T09:00:26.026Z,101168.97
2023-04-09T09:03:13.368Z,101161.31
2023-04-09T09:05:46.339Z,101164.72
2023-04-09T09:08:25.262Z,101164.38
2023-04-09T09:10:52.828Z,101153.72
2023-04-09T09:13:24.387Z,101157.69
2023-04-09T09:15:55.468Z,101154.13
2023-04-09T09:18:43.917Z,101149.91
2023-04-09T09:21:19.655Z,101149.25
2023-04-09T09:23:48.569Z,101148.25
2023-04-09T09:26:22.472Z,101140.44
2023-04-09T09:28:50.242Z,101154.00
2023-04-09T09:31:20.111Z,101152.28
2023-04-09T09:33:48.578Z,101149.25
2023-04-09T09:36:34.256Z,101142.81
2023-04-09T09:39:10.338Z,101143.19
2023-04-09T09:41:38.323Z,101138.41
2023-04-09T09:44:07.461Z,101135.72
2023-04-09T09:46:42.752Z,101136.72
2023-04-09T09:49:09.978Z,101136.22
2023-04-09T09:51:40.140Z,101137.91
2023-04-09T09:54:10.440Z,101136.72
2023-04-09T09:56:39.821Z,101136.38
2023-04-09T09:59:15.774Z,101128.72
2023-04-09T10:01:44.558Z,101121.06
2023-04-09T10:04:15.348Z,101126.13
2023-04-09T10:06:44.976Z,101113.16
2023-04-09T10:09:12.666Z,101112.94
2023-04-09T10:11:42.800Z,101114.44
2023-04-09T10:14:10.551Z,101121.22
2023-04-09T10:16:37.604Z,101114.72
2023-04-09T10:19:05.448Z,101107.22
2023-04-09T10:21:44.263Z,101100.22
2023-04-09T10:24:11.956Z,101098.50
2023-04-09T10:26:44.805Z,101088.84
2023-04-09T10:29:17.138Z,101073.84
2023-04-09T10:32:13.169Z,101077.78
2023-04-09T10:34:41.653Z,101054.44
2023-04-09T10:37:21.155Z,101071.44
2023-04-09T10:39:50.115Z,101066.69
2023-04-09T10:42:29.761Z,101071.06
2023-04-09T10:45:15.128Z,101053.03
2023-04-09T10:47:44.008Z,101057.06
2023-04-09T10:50:25.676Z,101052.59
2023-04-09T10:52:55.543Z,101038.91
2023-04-09T10:55:41.382Z,101029.41
2023-04-09T10:58:13.708Z,101035.72
2023-04-09T11:00:48.642Z,101028.09
2023-04-09T11:03:25.403Z,101030.06
2023-04-09T11:06:07.358Z,101032.25
2023-04-09T11:08:35.870Z,101021.78
2023-04-09T11:11:03.791Z,101020.84
2023-04-09T11:13:32.897Z,101013.47
2023-04-09T11:16:01.657Z,101008.47
2023-04-09T11:18:30.898Z,101004.63
2023-04-09T11:21:04.391Z,101001.38
2023-04-09T11:23:32.761Z,100988.94
2023-04-09T11:25:59.684Z,100992.78
2023-04-09T11:28:27.149Z,100981.72
2023-04-09T11:30:54.218Z,100986.88
2023-04-09T11:33:21.633Z,100982.00
2023-04-09T11:35:49.065Z,100971.81
2023-04-09T11:38:16.160Z,100980.56
2023-04-09T11:40:49.265Z,100970.22
2023-04-09T11:43:17.433Z,100966.34
2023-04-09T11:45:44.849Z,100970.44
2023-04-09T11:48:13.247Z,100950.00
2023-04-09T11:50:40.865Z,100954.25
2023-04-09T11:53:24.716Z,100954.72
2023-04-09T11:55:53.526Z,100956.03
2023-04-09T11:58:26.704Z,100953.16
2023-04-09T12:00:59.100Z,100940.63
2023-04-09T12:03:35.171Z,100945.94
2023-04-09T12:06:03.659Z,100942.81
2023-04-09T12:08:31.628Z,100935.53
2023-04-09T12:11:09.961Z,100950.84
2023-04-09T12:13:36.786Z,100932.56
2023-04-09T12:16:03.871Z,100943.31
2023-04-09T12:18:31.085Z,100936.22
2023-04-09T12:20:57.951Z,100932.00
2023-04-09T12:23:24.873Z,100939.84
2023-04-09T12:25:51.783Z,100938.16
2023-04-09T12:28:19.140Z,100933.78
2023-04-09T12:30:46.929Z,100939.78
2023-04-09T12:33:14.191Z,100932.34
2023-04-09T12:35:41.205Z,100934.22
2023-04-09T12:38:08.269Z,100923.72
2023-04-09T12:40:38.954Z,100922.34
2023-04-09T12:43:05.924Z,100923.41
2023-04-09T12:45:33.544Z,100931.66
2023-04-09T12:48:00.501Z,100924.34
2023-04-09T12:50:28.568Z,100920.59
2023-04-09T12:52:55.627Z,100920.59
2023-04-09T12:55:23.067Z,100915.56
2023-04-09T12:57:51.021Z,100910.50
2023-04-09T13:00:18.100Z,100911.75
2023-04-09T13:02:45.119Z,100908.19
2023-04-09T13:05:12.386Z,100903.34
2023-04-09T13:07:41.597Z,100897.66
2023-04-09T13:10:10.323Z,100895.16
2023-04-09T13:12:37.174Z,100894.16
2023-04-09T13:15:04.406Z,100897.13
2023-04-09T13:17:31.716Z,100888.72
2023-04-09T13:19:58.619Z,100890.25
2023-04-09T13:22:25.468Z,100886.63
2023-04-09T13:24:52.954Z,100886.28
2023-04-09T13:27:19.853Z,100882.66
2023-04-09T13:29:46.810Z,100871.09
2023-04-09T13:32:13.897Z,100885.00
2023-04-09T13:34:41.021Z,100879.97
2023-04-09T13:37:08.156Z,100872.34
2023-04-09T13:39:35.364Z,100877.03
2023-04-09T13:42:07.416Z,100877.03
2023-04-09T13:44:37.279Z,100872.38
2023-04-09T13:47:04.155Z,100879.75
2023-04-09T13:49:31.239Z,100892.97
2023-04-09T13:51:58.513Z,100873.81
2023-04-09T13:54:25.367Z,100869.63
2023-04-09T13:56:52.474Z,100873.03
2023-04-09T13:59:19.432Z,100864.19
2023-04-09T14:01:46.408Z,100862.50
2023-04-09T14:04:13.682Z,100855.13
2023-04-09T14:06:40.753Z,100843.97
2023-04-09T14:09:07.926Z,100841.19
2023-04-09T14:11:34.804Z,100840.38
2023-04-09T14:14:01.702Z,100836.16
2023-04-09T14:16:30.883Z,100834.28
2023-04-09T14:18:58.435Z,100827.31
2023-04-09T14:21:27.120Z,100841.22
2023-04-09T14:23:54.060Z,100833.25
2023-04-09T14:26:23.532Z,100833.00
2023-04-09T14:28:52.220Z,100842.72
2023-04-09T14:31:21.690Z,100843.72
2023-04-09T14:33:49.464Z,100834.25
2023-04-09T14:36:17.015Z,100825.84
2023-04-09T14:38:44.115Z,100811.31
2023-04-09T14:41:11.038Z,100818.47
2023-04-09T14:43:38.249Z,100800.34
2023-04-09T14:46:06.640Z,100797.41
2023-04-09T14:48:33.653Z,100799.72
2023-04-09T14:51:00.575Z,100790.72
2023-04-09T14:53:27.559Z,100783.09
2023-04-09T14:55:54.474Z,100775.97
2023-04-09T14:58:21.743Z,100772.59
2023-04-09T15:00:49.070Z,100768.81
2023-04-09T15:03:16.387Z,100760.38
2023-04-09T15:05:43.451Z,100755.16
2023-04-09T15:08:10.491Z,100756.41
2023-04-09T15:10:37.808Z,100750.91
2023-04-09T15:13:04.743Z,100743.75
2023-04-09T15:15:33.042Z,100741.63
2023-04-09T15:18:05.958Z,100732.78
2023-04-09T15:20:38.061Z,100730.47
2023-04-09T15:23:05.020Z,100715.72
2023-04-09T15:25:32.963Z,100712.34
2023-04-09T15:27:59.870Z,100699.53
2023-04-09T15:30:26.941Z,100680.19
2023-04-09T15:32:54.030Z,100668.19
2023-04-09T15:35:25.477Z,100669.84
2023-04-09T15:37:52.892Z,100660.81
2023-04-09T15:40:20.188Z,100667.13
2023-04-09T15:42:47.341Z,100671.13
2023-04-09T15:45:17.810Z,100668.41
2023-04-09T15:47:46.451Z,100683.28
2023-04-09T15:50:14.628Z,100670.91
2023-04-09T15:52:41.766Z,100663.34
2023-04-09T15:55:09.707Z,100656.81
2023-04-09T15:57:36.711Z,100670.66
2023-04-09T16:00:03.861Z,100663.09
2023-04-09T16:02:31.221Z,100653.84
2023-04-09T16:04:58.169Z,100650.44
2023-04-09T16:07:25.069Z,100644.19
2023-04-09T16:09:52.253Z,100647.78
2023-04-09T16:12:19.150Z,100644.84
2023-04-09T16:14:46.120Z,100646.31
2023-04-09T16:17:13.041Z,100636.78
2023-04-09T16:19:39.884Z,100639.75
2023-04-09T16:22:07.619Z,100641.41
2023-04-09T16:24:34.650Z,100632.78
2023-04-09T16:27:01.886Z,100631.50
2023-04-09T16:29:29.098Z,100637.63
2023-04-09T16:31:58.022Z,100639.31
2023-04-09T16:34:25.227Z,100630.47
2023-04-09T16:36:52.151Z,100627.09
2023-04-09T16:39:19.865Z,100625.66
2023-04-09T16:41:46.790Z,100634.66
2023-04-09T16:44:13.902Z,100619.56
2023-04-09T16:46:41.035Z,100618.06
2023-04-09T16:49:07.895Z,100607.13
2023-04-09T16:51:35.170Z,100609.84
2023-04-09T16:54:02.402Z,100604.19
2023-04-09T16:56:29.416Z,100594.28
2023-04-09T16:58:56.536Z,100598.94
2023-04-09T17:01:23.488Z,100589.47
2023-04-09T17:03:51.364Z,100573.47
2023-04-09T17:06:18.335Z,100585.63
2023-04-09T17:08:45.971Z,100573.66
2023-04-09T17:11:17.286Z,100574.31
2023-04-09T17:13:44.192Z,100567.34
2023-04-09T17:16:12.087Z,100577.00
2023-04-09T17:18:39.199Z,100579.09
2023-04-09T17:21:07.012Z,100576.16
2023-04-09T17:23:34.116Z,100577.19
2023-04-09T17:26:01.879Z,100582.19
2023-04-09T17:28:28.768Z,100570.84
2023-04-09T17:30:55.939Z,100566.44
2023-04-09T17:33:22.869Z,100570.41
2023-04-09T17:35:49.752Z,100573.34
2023-04-09T17:38:21.585Z,100565.72
2023-04-09T17:40:49.047Z,100573.25
2023-04-09T17:43:15.922Z,100574.91
2023-04-09T17:45:42.835Z,100566.47
2023-04-09T17:48:09.872Z,100570.66
2023-04-09T17:50:39.722Z,100567.69
2023-04-09T17:53:06.686Z,100559.66
2023-04-09T17:55:33.828Z,100563.41
2023-04-09T17:58:01.033Z,100556.69
2023-04-09T18:00:28.119Z,100567.34
2023-04-09T18:02:55.365Z,100566.69
2023-04-09T18:05:23.309Z,100575.25
2023-04-09T18:07:51.291Z,100569.78
2023-04-09T18:10:18.696Z,100574.34
2023-04-09T18:12:46.003Z,100569.31
2023-04-09T18:15:13.380Z,100561.50
2023-04-09T18:17:40.265Z,100558.78
2023-04-09T18:20:07.887Z,100563.59
2023-04-09T18:22:35.424Z,100565.59
2023-04-09T18:25:02.549Z,100568.09
2023-04-09T18:27:29.507Z,100563.03
2023-04-09T18:29:56.712Z,100550.00
2023-04-09T18:32:23.902Z,100556.88
2023-04-09T18:34:52.326Z,100559.16
2023-04-09T18:37:22.123Z,100555.16
2023-04-09T18:39:49.004Z,100559.22
2023-04-09T18:42:15.890Z,100553.78
2023-04-09T18:44:42.835Z,100563.16
2023-04-09T18:47:11.756Z,100561.47
2023-04-09T18:49:38.621Z,100558.28
2023-04-09T18:52:10.371Z,100559.53
2023-04-09T18:54:37.527Z,100560.53
2023-04-09T18:57:05.008Z,100574.75
2023-04-09T18:59:35.253Z,100569.03
2023-04-09T19:02:06.189Z,100564.19
2023-04-09T19:04:40.092Z,100561.47
2023-04-09T19:07:07.636Z,100568.41
2023-04-09T19:09:34.954Z,100559.91
2023-04-09T19:12:02.137Z,100560.25
2023-04-09T19:14:29.150Z,100551.44
2023-04-09T19:16:56.636Z,100554.97
2023-04-09T19:19:23.801Z,100551.44
2023-04-09T19:21:50.882Z,100548.25
2023-04-09T19:24:17.746Z,100544.69
2023-04-09T19:26:44.616Z,100549.84
2023-04-09T19:29:11.727Z,100539.94
2023-04-09T19:31:38.735Z,100526.50
2023-04-09T19:34:06.441Z,100528.88
2023-04-09T19:36:34.239Z,100529.88
2023-04-09T19:39:01.421Z,100522.03
2023-04-09T19:41:28.291Z,100518.28
2023-04-09T19:43:55.452Z,100526.00
2023-04-09T19:46:22.339Z,100520.72
2023-04-09T19:48:49.542Z,100516.13
2023-04-09T19:51:20.462Z,100510.44
2023-04-09T19:53:48.212Z,100517.56
2023-04-09T19:56:16.055Z,100515.00
2023-04-09T19:58:44.047Z,100501.16
2023-04-09T20:01:11.149Z,100504.25
2023-04-09T20:03:38.598Z,100506.50
2023-04-09T20:06:10.341Z,100501.91
2023-04-09T20:08:41.883Z,100495.63
2023-04-09T20:11:08.836Z,100501.06
2023-04-09T20:13:35.872Z,100489.53
2023-04-09T20:16:03.188Z,100500.78
2023-04-09T20:18:30.099Z,100482.63
2023-04-09T20:20:57.300Z,100484.22
2023-04-09T20:23:24.178Z,100484.22
2023-04-09T20:25:55.365Z,100473.72
2023-04-09T20:28:22.345Z,100477.84
2023-04-09T20:30:49.646Z,100480.56
2023-04-09T20:33:18.279Z,100466.69
2023-04-09T20:35:45.843Z,100460.25
2023-04-09T20:38:12.816Z,100462.69
2023-04-09T20:40:39.884Z,100459.31
2023-04-09T20:43:06.750Z,100450.97
2023-04-09T20:45:33.775Z,100447.38
2023-04-09T20:48:01.413Z,100444.03
2023-04-09T20:50:29.128Z,100445.72
2023-04-09T20:52:56.331Z,100437.09
2023-04-09T20:55:24.690Z,100434.94
2023-04-09T20:57:52.185Z,100431.78
2023-04-09T21:00:19.200Z,100440.94
2023-04-09T21:02:46.329Z,100430.91
2023-04-09T21:05:22.412Z,100435.25
2023-04-09T21:07:50.296Z,100425.59
2023-04-09T21:10:17.626Z,100424.59
2023-04-09T21:12:44.525Z,100415.56
2023-04-09T21:15:11.985Z,100424.13
2023-04-09T21:17:38.932Z,100423.91
2023-04-09T21:20:06.768Z,100401.44
2023-04-09T21:22:35.100Z,100411.72
2023-04-09T21:25:03.443Z,100406.28
2023-04-09T21:27:30.660Z,100412.03
2023-04-09T21:29:57.746Z,100405.00
2023-04-09T21:32:25.492Z,100405.00
2023-04-09T21:34:52.373Z,100403.50
2023-04-09T21:37:19.276Z,100399.50
2023-04-09T21:39:46.735Z,100396.19
2023-04-09T21:42:13.550Z,100389.63
2023-04-09T21:44:40.570Z,100394.41
2023-04-09T21:47:09.194Z,100388.81
2023-04-09T21:49:40.744Z,100388.63
2023-04-09T21:52:14.641Z,100380.56
2023-04-09T21:54:43.428Z,100381.13
2023-04-09T21:57:11.121Z,100375.03
2023-04-09T21:59:38.082Z,100380.66
2023-04-09T22:02:05.542Z,100369.31
2023-04-09T22:04:35.315Z,100363.25
2023-04-09T22:07:02.908Z,100362.28
2023-04-09T22:09:30.996Z,100361.44
2023-04-09T22:11:58.702Z,100355.06
2023-04-09T22:14:29.562Z,100360.31
2023-04-09T22:16:58.567Z,100350.00
2023-04-09T22:19:26.720Z,100351.69
2023-04-09T22:21:54.203Z,100338.88
2023-04-09T22:24:27.239Z,100337.19
2023-04-09T22:26:54.275Z,100334.00
2023-04-09T22:29:21.513Z,100333.53
2023-04-09T22:31:48.395Z,100330.16
2023-04-09T22:34:21.414Z,100331.09
2023-04-09T22:36:49.342Z,100329.91
2023-04-09T22:39:16.593Z,100324.91
2023-04-09T22:41:43.861Z,100319.22
2023-04-09T22:44:10.945Z,100310.91
2023-04-09T22:46:37.878Z,100305.47
2023-04-09T22:49:05.999Z,100311.09
2023-04-09T22:51:34.944Z,100309.38
2023-04-09T22:54:02.401Z,100309.38
2023-04-09T22:56:31.974Z,100308.72
2023-04-09T22:58:59.082Z,100305.66
2023-04-09T23:01:27.609Z,100308.19
2023-04-09T23:03:55.003Z,100314.44
2023-04-09T23:06:23.012Z,100313.97
2023-04-09T23:08:50.377Z,100309.56
2023-04-09T23:11:17.337Z,100311.25
2023-04-09T23:13:44.690Z,100309.78
2023-04-09T23:16:11.632Z,100295.06
2023-04-09T23:18:38.595Z,100294.31
2023-04-09T23:21:07.811Z,100284.59
2023-04-09T23:23:35.717Z,100281.28
2023-04-09T23:26:02.947Z,100268.31
2023-04-09T23:28:30.544Z,100251.66
2023-04-09T23:30:57.888Z,100254.75
2023-04-09T23:33:25.054Z,100255.78
2023-04-09T23:35:51.982Z,100244.25
2023-04-09T23:38:19.056Z,100230.69
2023-04-09T23:40:47.577Z,100229.03
2023-04-09T23:43:14.461Z,100213.50
2023-04-09T23:45:41.357Z,100220.31
2023-04-09T23:48:09.094Z,100219.47
2023-04-09T23:50:40.848Z,100219.09
2023-04-09T23:53:08.096Z,100216.56
2023-04-09T23:55:38.661Z,100207.97
2023-04-09T23:58:05.711Z,100204.03
